Time;durP1;ratioP1;P1;durP2;ratioP2;P2;SDS_P1;SDS_P2;PMS_P1;PMS_P2;Temp;Humidity;BMP_temperature;BMP_pressure;BME280_temperature;BME280_humidity;BME280_pressure;Samples;Min_cycle;Max_cycle;Signal;HPM_P1;HPM_P2
2022/04/04 00:00:40;;;;;;;4.67;3.60;;;3.70;99.90;;;;;;5012968;28;20275;-77
2022/04/04 00:03:05;;;;;;;4.27;3.00;;;3.70;99.90;;;;;;5004442;28;20333;-77
2022/04/04 00:05:30;;;;;;;6.50;3.57;;;3.70;99.90;;;;;;5005104;28;20584;-77
2022/04/04 00:07:56;;;;;;;6.03;3.43;;;3.70;99.90;;;;;;5023588;28;20232;-77
2022/04/04 00:10:22;;;;;;;5.43;3.53;;;3.60;99.90;;;;;;5031184;28;20215;-76
2022/04/04 00:12:47;;;;;;;4.90;3.47;;;3.60;99.90;;;;;;5011650;28;20177;-77
2022/04/04 00:15:12;;;;;;;4.27;3.30;;;3.50;99.90;;;;;;5017372;28;20178;-77
2022/04/04 00:17:38;;;;;;;5.37;3.43;;;3.60;99.90;;;;;;5005645;28;20724;-77
2022/04/04 00:20:05;;;;;;;4.00;3.30;;;3.60;99.90;;;;;;5004577;28;20205;-77
2022/04/04 00:22:31;;;;;;;5.57;3.53;;;3.70;99.90;;;;;;5019988;28;20206;-77
2022/04/04 00:24:56;;;;;;;5.97;3.63;;;3.70;99.90;;;;;;5032505;28;20184;-77
2022/04/04 00:27:22;;;;;;;4.77;3.70;;;3.60;99.90;;;;;;5016232;28;20235;-77
2022/04/04 00:29:48;;;;;;;5.97;4.00;;;3.60;99.90;;;;;;5012065;28;20206;-76
2022/04/04 00:32:13;;;;;;;5.90;3.30;;;3.70;99.90;;;;;;5005306;28;20295;-78
2022/04/04 00:34:39;;;;;;;4.50;2.97;;;3.70;99.90;;;;;;5003460;28;20700;-77
2022/04/04 00:37:04;;;;;;;6.07;3.60;;;3.70;99.90;;;;;;5014847;28;20213;-77
2022/04/04 00:39:30;;;;;;;5.23;3.63;;;3.60;99.90;;;;;;5031536;28;20295;-78
2022/04/04 00:41:56;;;;;;;6.77;3.03;;;3.60;99.90;;;;;;5019274;28;20232;-77
2022/04/04 00:44:21;;;;;;;8.30;3.97;;;3.60;99.90;;;;;;5012151;28;20214;-77
2022/04/04 00:46:47;;;;;;;5.97;3.67;;;3.60;99.90;;;;;;5040657;28;20225;-78
2022/04/04 00:49:12;;;;;;;5.30;3.47;;;3.60;99.90;;;;;;5034859;28;20661;-78
2022/04/04 00:51:38;;;;;;;4.87;3.80;;;3.60;99.90;;;;;;5022626;28;20205;-78
2022/04/04 00:54:05;;;;;;;5.30;3.97;;;3.60;99.90;;;;;;5022944;28;20705;-78
2022/04/04 00:56:32;;;;;;;8.40;3.50;;;3.60;99.90;;;;;;5037488;28;20301;-77
2022/04/04 00:58:59;;;;;;;5.77;3.53;;;3.60;99.90;;;;;;5019655;28;20278;-76
2022/04/04 01:01:25;;;;;;;6.37;4.23;;;3.60;99.90;;;;;;5020689;28;20300;-78
2022/04/04 01:03:50;;;;;;;8.87;3.87;;;3.60;99.90;;;;;;5023648;28;20757;-78
2022/04/04 01:06:17;;;;;;;6.27;4.10;;;3.70;99.90;;;;;;5024029;28;20178;-78
2022/04/04 01:08:43;;;;;;;5.17;3.70;;;3.60;99.90;;;;;;5019380;28;20285;-78
2022/04/04 01:11:09;;;;;;;4.90;3.67;;;3.60;99.90;;;;;;5035161;28;20213;-77
2022/04/04 01:13:34;;;;;;;4.70;3.80;;;3.60;99.90;;;;;;5019857;28;20226;-77
2022/04/04 01:16:00;;;;;;;10.07;4.43;;;3.60;99.90;;;;;;5023732;28;20212;-78
2022/04/04 01:18:25;;;;;;;6.30;3.93;;;3.60;99.90;;;;;;5014088;28;20287;-77
2022/04/04 01:20:51;;;;;;;7.73;4.13;;;3.50;99.90;;;;;;5031008;28;20224;-78
2022/04/04 01:23:23;;;;;;;4.50;3.50;;;3.50;99.90;;;;;;5023230;28;20200;-77
2022/04/04 01:25:49;;;;;;;4.93;4.37;;;3.50;99.90;;;;;;5021882;28;20227;-78
2022/04/04 01:28:14;;;;;;;7.87;5.00;;;3.50;99.90;;;;;;5021080;28;20681;-77
2022/04/04 01:30:40;;;;;;;5.80;4.70;;;3.50;99.90;;;;;;5018817;28;20219;-77
2022/04/04 01:33:06;;;;;;;7.17;4.30;;;3.40;99.90;;;;;;5020332;28;20579;-78
2022/04/04 01:35:32;;;;;;;6.57;4.63;;;3.40;99.90;;;;;;5019633;28;20709;-77
2022/04/04 01:37:58;;;;;;;7.43;4.10;;;3.40;99.90;;;;;;5022186;28;20298;-75
2022/04/04 01:40:23;;;;;;;5.97;4.03;;;3.40;99.90;;;;;;5022263;28;20635;-76
2022/04/04 01:42:52;;;;;;;6.33;4.80;;;3.40;99.90;;;;;;5019548;28;20173;-78
2022/04/04 01:46:23;;;;;;;6.80;4.27;;;3.30;99.90;;;;;;5024526;28;20177;-77
2022/04/04 01:48:04;;;;;;;7.53;4.90;;;3.30;99.90;;;;;;5010649;28;20219;-78
2022/04/04 01:50:30;;;;;;;9.20;4.60;;;3.20;99.90;;;;;;5002269;28;20224;-78
2022/04/04 01:53:25;;;;;;;8.53;5.00;;;3.30;99.90;;;;;;5001758;28;20384;-77
2022/04/04 01:55:44;;;;;;;5.23;4.60;;;3.20;99.90;;;;;;5019922;28;20219;-78
2022/04/04 01:58:09;;;;;;;6.07;4.73;;;3.20;99.90;;;;;;5030114;28;20220;-77
2022/04/04 02:00:35;;;;;;;6.40;4.60;;;3.20;99.90;;;;;;5012813;28;20200;-77
2022/04/04 02:03:00;;;;;;;6.77;4.53;;;3.10;99.90;;;;;;5011199;28;20250;-77
2022/04/04 02:05:25;;;;;;;7.80;4.87;;;3.20;99.90;;;;;;5001598;28;20247;-77
2022/04/04 02:07:51;;;;;;;4.87;4.03;;;3.10;99.90;;;;;;5001283;28;20263;-77
2022/04/04 02:10:16;;;;;;;6.00;4.47;;;3.10;99.90;;;;;;5016009;28;20764;-78
2022/04/04 02:12:42;;;;;;;6.50;4.83;;;3.10;99.90;;;;;;5030627;28;20410;-78
2022/04/04 02:15:08;;;;;;;7.07;5.03;;;3.10;99.90;;;;;;5019694;28;20660;-78
2022/04/04 02:17:33;;;;;;;7.63;5.07;;;3.10;99.90;;;;;;5004167;28;20217;-77
2022/04/04 02:19:59;;;;;;;6.40;4.57;;;3.20;99.90;;;;;;5002053;28;20212;-77
2022/04/04 02:22:25;;;;;;;6.40;4.77;;;3.20;99.90;;;;;;5015909;28;20214;-77
2022/04/04 02:24:51;;;;;;;8.57;4.93;;;3.10;99.90;;;;;;5029653;28;20180;-77
2022/04/04 02:27:21;;;;;;;6.17;4.77;;;3.10;99.90;;;;;;5015144;28;20173;-78
2022/04/04 02:29:47;;;;;;;6.47;4.80;;;3.10;99.90;;;;;;5018731;28;20199;-78
2022/04/04 02:32:12;;;;;;;6.53;4.87;;;3.10;99.90;;;;;;5060487;22;20238;-75
2022/04/04 02:34:38;;;;;;;9.87;5.27;;;3.10;99.90;;;;;;5041599;28;20223;-75
2022/04/04 02:37:03;;;;;;;6.87;4.80;;;3.10;99.90;;;;;;5050193;28;20223;-75
2022/04/04 02:39:29;;;;;;;6.50;5.07;;;3.10;99.90;;;;;;5049902;28;20551;-73
2022/04/04 02:41:55;;;;;;;7.23;5.17;;;3.00;99.90;;;;;;5045875;28;20204;-74
2022/04/04 02:44:20;;;;;;;7.50;5.27;;;3.10;99.90;;;;;;5037453;28;20261;-74
2022/04/04 02:46:46;;;;;;;6.13;4.57;;;3.10;99.90;;;;;;5057386;28;20295;-74
2022/04/04 02:49:11;;;;;;;7.30;5.43;;;3.00;99.90;;;;;;5048246;28;20222;-74
2022/04/04 02:51:37;;;;;;;9.00;4.90;;;3.10;99.90;;;;;;5042192;28;20678;-74
2022/04/04 02:54:02;;;;;;;10.47;5.90;;;3.10;99.90;;;;;;5042090;28;20229;-74
2022/04/04 02:56:30;;;;;;;7.30;5.40;;;3.10;99.90;;;;;;5041817;28;20214;-74
2022/04/04 02:58:58;;;;;;;8.47;5.60;;;3.00;99.90;;;;;;5041069;28;20288;-75
2022/04/04 03:01:24;;;;;;;7.90;5.70;;;3.10;99.90;;;;;;5043942;28;20216;-74
2022/04/04 03:03:50;;;;;;;7.20;5.83;;;3.10;99.90;;;;;;5042916;28;20243;-74
2022/04/04 03:06:16;;;;;;;6.50;5.23;;;3.00;99.90;;;;;;5043474;28;20250;-74
2022/04/04 03:08:41;;;;;;;7.13;5.50;;;3.00;99.90;;;;;;5044970;28;20211;-74
2022/04/04 03:11:07;;;;;;;8.57;6.00;;;3.00;99.90;;;;;;5045850;28;20287;-74
2022/04/04 03:13:32;;;;;;;8.07;5.10;;;3.10;99.90;;;;;;5043455;28;20297;-74
2022/04/04 03:15:58;;;;;;;7.43;5.10;;;3.00;99.90;;;;;;5042507;28;20297;-74
2022/04/04 03:18:25;;;;;;;5.93;5.00;;;3.00;99.90;;;;;;5042001;28;20200;-73
2022/04/04 03:20:51;;;;;;;10.03;6.73;;;3.00;99.90;;;;;;5045322;28;20210;-74
2022/04/04 03:23:17;;;;;;;9.60;5.70;;;3.00;99.90;;;;;;5045675;28;20238;-74
2022/04/04 03:25:42;;;;;;;6.80;5.73;;;3.00;99.90;;;;;;5041641;28;20697;-74
2022/04/04 03:28:08;;;;;;;8.10;5.30;;;3.00;99.90;;;;;;5042796;28;20288;-74
2022/04/04 03:30:33;;;;;;;8.43;5.50;;;3.00;99.90;;;;;;5047677;28;20175;-74
2022/04/04 03:32:59;;;;;;;9.60;5.83;;;3.00;99.90;;;;;;5038920;28;20737;-74
2022/04/04 03:35:27;;;;;;;8.40;5.57;;;3.00;99.90;;;;;;5042133;28;20282;-74
2022/04/04 03:37:55;;;;;;;10.80;5.43;;;3.00;99.90;;;;;;5043356;28;20304;-74
2022/04/04 03:40:21;;;;;;;7.83;5.47;;;3.00;99.90;;;;;;5044281;28;20218;-72
2022/04/04 03:42:50;;;;;;;6.17;5.07;;;3.00;99.90;;;;;;5041765;28;20195;-76
2022/04/04 03:45:17;;;;;;;8.93;5.37;;;3.00;99.90;;;;;;5042134;28;20179;-74
2022/04/04 03:47:43;;;;;;;7.10;5.10;;;3.00;99.90;;;;;;5044149;28;20222;-73
2022/04/04 03:50:14;;;;;;;8.60;5.83;;;2.90;99.90;;;;;;5043176;28;20242;-74
2022/04/04 03:52:41;;;;;;;9.10;5.90;;;2.90;99.90;;;;;;5042082;28;20217;-74
2022/04/04 03:55:07;;;;;;;7.33;5.30;;;2.90;99.90;;;;;;5041448;28;20708;-74
2022/04/04 03:57:33;;;;;;;7.60;5.60;;;2.90;99.90;;;;;;5042341;28;20322;-75
2022/04/04 03:59:59;;;;;;;11.13;6.00;;;2.90;99.90;;;;;;5048386;28;20297;-74
2022/04/04 04:02:24;;;;;;;8.10;5.90;;;2.90;99.90;;;;;;5040525;28;20202;-74
2022/04/04 04:04:50;;;;;;;9.27;5.30;;;2.90;99.90;;;;;;5044721;28;20260;-74
2022/04/04 04:07:18;;;;;;;8.23;5.40;;;2.90;99.90;;;;;;5043626;28;20861;-74
2022/04/04 04:09:44;;;;;;;7.73;5.30;;;2.90;99.90;;;;;;5040872;28;20625;-74
2022/04/04 04:12:11;;;;;;;10.20;5.50;;;2.90;99.90;;;;;;5041684;28;20270;-74
2022/04/04 04:14:38;;;;;;;7.43;5.43;;;2.90;99.90;;;;;;5043302;28;20215;-74
2022/04/04 04:17:04;;;;;;;7.67;5.73;;;2.90;99.90;;;;;;5044398;28;20553;-74
2022/04/04 04:22:14;;;;;;;7.60;5.90;;;2.90;99.90;;;;;;5040908;28;20221;-74
2022/04/04 04:24:40;;;;;;;6.60;5.07;;;2.90;99.90;;;;;;5043432;28;20184;-74
2022/04/04 04:27:05;;;;;;;7.00;4.97;;;2.90;99.90;;;;;;5044703;28;20253;-74
2022/04/04 04:29:31;;;;;;;8.70;5.00;;;2.90;99.90;;;;;;5037688;28;20227;-74
2022/04/04 04:31:56;;;;;;;8.10;5.00;;;2.90;99.90;;;;;;5043970;28;20226;-74
2022/04/04 04:34:21;;;;;;;7.43;5.50;;;2.90;99.90;;;;;;5043768;28;20211;-73
2022/04/04 04:36:48;;;;;;;8.33;5.20;;;2.90;99.90;;;;;;5040640;28;20718;-74
2022/04/04 04:39:13;;;;;;;5.70;5.10;;;2.90;99.90;;;;;;5040129;28;20231;-74
2022/04/04 04:41:39;;;;;;;7.57;5.60;;;3.00;99.90;;;;;;5041505;28;20244;-74
2022/04/04 04:44:05;;;;;;;6.83;5.10;;;3.00;99.90;;;;;;5042502;28;20307;-74
2022/04/04 04:46:31;;;;;;;7.60;5.37;;;3.00;99.90;;;;;;5042158;28;20219;-74
2022/04/04 04:48:57;;;;;;;9.67;5.67;;;3.10;99.90;;;;;;5041513;28;20184;-74
2022/04/04 04:51:22;;;;;;;8.10;4.97;;;3.10;99.90;;;;;;5041377;28;20200;-74
2022/04/04 04:53:48;;;;;;;7.73;4.87;;;3.10;99.90;;;;;;5042811;28;20223;-74
2022/04/04 04:56:14;;;;;;;7.83;5.00;;;3.20;99.90;;;;;;5043764;28;20204;-74
2022/04/04 04:58:39;;;;;;;6.93;4.90;;;3.30;99.90;;;;;;5040202;28;20710;-74
2022/04/04 05:01:05;;;;;;;5.63;4.70;;;3.40;99.90;;;;;;5040239;28;20215;-74
2022/04/04 05:03:30;;;;;;;8.80;5.10;;;3.40;99.90;;;;;;5041853;28;20708;-74
2022/04/04 05:05:56;;;;;;;9.00;4.70;;;3.60;99.90;;;;;;5043614;28;20633;-73
2022/04/04 05:08:22;;;;;;;7.37;4.97;;;3.90;99.90;;;;;;5042582;28;20240;-73
2022/04/04 05:10:48;;;;;;;6.77;4.73;;;4.20;99.90;;;;;;5039825;28;20204;-75
2022/04/04 05:13:13;;;;;;;7.60;5.00;;;4.30;99.90;;;;;;5040028;28;20211;-74
2022/04/04 05:15:40;;;;;;;5.50;4.83;;;4.40;99.90;;;;;;5041246;28;20178;-74
2022/04/04 05:18:06;;;;;;;6.70;5.23;;;4.50;99.90;;;;;;5045243;28;20198;-73
2022/04/04 05:20:31;;;;;;;6.17;4.93;;;4.60;99.90;;;;;;5042235;28;20250;-74
2022/04/04 05:22:59;;;;;;;7.60;5.00;;;4.70;99.90;;;;;;5039698;28;20213;-74
2022/04/04 05:25:25;;;;;;;5.53;4.57;;;5.70;99.90;;;;;;5039482;28;20293;-74
2022/04/04 05:27:52;;;;;;;9.57;4.73;;;7.50;99.90;;;;;;5042745;28;20258;-74
2022/04/04 05:30:18;;;;;;;5.87;4.00;;;8.40;99.90;;;;;;5043225;28;20172;-74
2022/04/04 05:32:43;;;;;;;5.93;3.77;;;8.00;99.90;;;;;;5038678;28;20212;-73
2022/04/04 05:35:11;;;;;;;6.90;4.77;;;7.70;99.90;;;;;;5038513;28;20217;-73
2022/04/04 05:37:36;;;;;;;10.60;5.07;;;7.30;99.90;;;;;;5041675;28;20212;-74
2022/04/04 05:40:03;;;;;;;5.20;4.70;;;6.90;99.90;;;;;;5042636;28;20207;-73
2022/04/04 05:42:29;;;;;;;5.33;4.47;;;6.80;99.90;;;;;;5042431;28;20188;-73
2022/04/04 05:44:55;;;;;;;5.23;4.30;;;7.10;99.90;;;;;;5040249;28;20732;-73
2022/04/04 05:47:20;;;;;;;6.83;4.33;;;7.40;99.90;;;;;;5042555;28;20291;-73
2022/04/04 05:49:48;;;;;;;7.47;4.80;;;7.20;99.90;;;;;;5042855;28;20574;-73
2022/04/04 05:52:15;;;;;;;6.27;4.60;;;7.10;99.90;;;;;;5042864;28;20747;-73
2022/04/04 05:54:54;;;;;;;6.47;4.83;;;6.90;99.90;;;;;;5040305;28;20264;-73
2022/04/04 05:57:21;;;;;;;5.23;4.73;;;6.60;99.90;;;;;;5038877;28;20716;-74
2022/04/04 05:59:47;;;;;;;8.30;5.00;;;6.60;99.90;;;;;;5044464;28;20707;-74
2022/04/04 06:02:13;;;;;;;7.40;5.07;;;6.30;99.90;;;;;;5041548;28;20214;-74
2022/04/04 06:04:38;;;;;;;8.63;5.73;;;6.10;99.90;;;;;;5038942;28;20630;-73
2022/04/04 06:07:04;;;;;;;6.23;5.23;;;6.10;99.90;;;;;;5041676;28;20271;-75
2022/04/04 06:09:30;;;;;;;6.47;5.77;;;6.00;99.90;;;;;;5049723;28;20187;-73
2022/04/04 06:11:55;;;;;;;6.73;5.57;;;6.20;99.90;;;;;;5038965;28;20235;-74
2022/04/04 06:14:21;;;;;;;8.20;5.60;;;6.50;99.90;;;;;;5038965;28;20556;-73
2022/04/04 06:16:46;;;;;;;5.47;4.87;;;6.80;99.90;;;;;;5042638;28;20226;-73
2022/04/04 06:19:11;;;;;;;6.63;5.93;;;7.10;99.90;;;;;;5043853;28;20227;-73
2022/04/04 06:21:37;;;;;;;8.47;5.60;;;7.30;99.90;;;;;;5041612;28;20634;-74
2022/04/04 06:24:03;;;;;;;8.30;5.80;;;7.20;99.90;;;;;;5042305;28;20211;-75
2022/04/04 06:26:30;;;;;;;6.67;5.53;;;7.10;99.90;;;;;;5041238;28;20594;-74
2022/04/04 06:28:56;;;;;;;9.17;5.97;;;7.00;99.90;;;;;;5037987;28;20270;-74
2022/04/04 06:31:21;;;;;;;8.37;6.13;;;7.10;99.90;;;;;;5038830;28;20228;-74
2022/04/04 06:33:47;;;;;;;8.43;7.07;;;7.30;99.90;;;;;;5040890;28;20183;-76
2022/04/04 06:36:12;;;;;;;16.30;11.63;;;7.00;99.90;;;;;;5045919;28;20716;-74
2022/04/04 06:38:38;;;;;;;8.80;6.37;;;6.90;99.90;;;;;;5042956;28;20298;-73
2022/04/04 06:41:04;;;;;;;12.17;8.03;;;6.80;99.90;;;;;;5041603;28;20307;-73
2022/04/04 06:43:30;;;;;;;9.03;7.57;;;6.70;99.90;;;;;;5042587;28;20689;-73
2022/04/04 06:45:55;;;;;;;8.90;7.07;;;6.50;99.90;;;;;;5046233;28;20176;-73
2022/04/04 06:48:22;;;;;;;11.37;7.87;;;6.50;99.90;;;;;;5054891;28;20184;-73
2022/04/04 06:50:47;;;;;;;12.03;7.87;;;6.30;99.90;;;;;;5042453;28;20563;-73
2022/04/04 06:53:13;;;;;;;10.83;7.73;;;6.30;99.90;;;;;;5040871;28;20208;-73
2022/04/04 06:55:39;;;;;;;10.63;8.00;;;6.30;99.90;;;;;;5044890;28;20299;-74
2022/04/04 06:58:05;;;;;;;9.00;7.30;;;6.30;99.90;;;;;;5044832;28;20219;-72
2022/04/04 07:00:31;;;;;;;10.13;7.50;;;6.20;99.90;;;;;;5044669;28;20202;-74
2022/04/04 07:02:58;;;;;;;9.37;7.27;;;6.30;99.90;;;;;;5042587;28;20677;-73
2022/04/04 07:05:24;;;;;;;10.13;7.83;;;6.40;99.90;;;;;;5042358;28;20212;-73
2022/04/04 07:07:50;;;;;;;9.20;7.47;;;6.50;99.90;;;;;;5045465;28;20206;-73
2022/04/04 07:10:15;;;;;;;12.77;8.27;;;6.70;99.90;;;;;;5044226;28;20280;-73
2022/04/04 07:12:42;;;;;;;11.40;8.60;;;6.70;99.90;;;;;;5042596;28;20196;-73
2022/04/04 07:15:08;;;;;;;9.50;8.27;;;6.70;99.90;;;;;;5042584;28;20641;-73
2022/04/04 07:17:34;;;;;;;10.27;8.80;;;6.50;99.90;;;;;;5045259;28;20717;-74
2022/04/04 07:19:59;;;;;;;13.60;9.40;;;6.60;99.90;;;;;;5043489;28;20207;-74
2022/04/04 07:22:25;;;;;;;13.47;9.27;;;6.50;99.90;;;;;;5044636;28;20219;-74
2022/04/04 07:24:51;;;;;;;11.70;9.70;;;6.40;99.90;;;;;;5041938;28;20230;-74
2022/04/04 07:27:16;;;;;;;11.53;9.33;;;6.40;99.90;;;;;;5042291;28;20172;-75
2022/04/04 07:29:42;;;;;;;11.13;9.30;;;6.50;99.90;;;;;;5044723;28;20214;-74
2022/04/04 07:32:09;;;;;;;14.57;8.67;;;6.50;99.90;;;;;;5045445;28;20218;-73
2022/04/04 07:34:35;;;;;;;13.73;9.40;;;6.60;99.90;;;;;;5042121;28;20211;-74
2022/04/04 07:37:01;;;;;;;11.70;9.00;;;6.80;99.90;;;;;;5041897;28;20707;-74
2022/04/04 07:39:26;;;;;;;10.10;8.80;;;6.90;99.90;;;;;;5040642;28;20207;-74
2022/04/04 07:41:52;;;;;;;11.37;9.00;;;7.00;99.90;;;;;;5043066;28;20200;-74
2022/04/04 07:44:18;;;;;;;11.23;9.70;;;7.20;99.90;;;;;;5045320;28;20210;-75
2022/04/04 07:46:43;;;;;;;13.20;9.77;;;7.30;99.90;;;;;;5040668;28;20291;-74
2022/04/04 07:49:09;;;;;;;9.23;8.13;;;7.40;99.90;;;;;;5042314;28;20204;-74
2022/04/04 07:51:34;;;;;;;12.23;9.40;;;7.50;99.90;;;;;;5043817;28;20196;-73
2022/04/04 07:54:00;;;;;;;11.63;9.10;;;7.70;99.90;;;;;;5044787;28;20657;-73
2022/04/04 07:56:25;;;;;;;11.80;8.83;;;8.00;99.90;;;;;;5043881;28;20204;-74
2022/04/04 07:58:51;;;;;;;15.53;9.50;;;8.20;99.90;;;;;;5039019;28;20223;-74
2022/04/04 08:01:16;;;;;;;12.27;9.43;;;8.10;99.90;;;;;;5041167;28;20216;-74
2022/04/04 08:03:42;;;;;;;10.20;8.30;;;8.10;99.90;;;;;;5044021;28;20661;-74
2022/04/04 08:06:07;;;;;;;10.10;8.10;;;7.80;99.90;;;;;;5045302;28;20184;-74
2022/04/04 08:08:33;;;;;;;10.00;8.67;;;7.80;99.90;;;;;;5042747;28;20249;-73
2022/04/04 08:10:58;;;;;;;13.53;8.40;;;7.80;99.90;;;;;;5041983;28;20505;-73
2022/04/04 08:13:24;;;;;;;16.13;11.13;;;7.90;99.90;;;;;;5041853;28;20204;-73
2022/04/04 08:15:50;;;;;;;10.87;8.80;;;7.90;99.90;;;;;;5044251;28;20175;-73
2022/04/04 08:18:16;;;;;;;11.90;8.30;;;8.30;99.90;;;;;;5045726;28;20211;-73
2022/04/04 08:20:42;;;;;;;14.13;9.23;;;8.40;99.90;;;;;;5041586;28;20230;-73
2022/04/04 08:23:08;;;;;;;9.90;7.93;;;8.50;99.90;;;;;;5039686;28;20223;-75
2022/04/04 08:25:36;;;;;;;10.57;8.43;;;8.80;99.90;;;;;;5041894;28;20204;-74
2022/04/04 08:28:02;;;;;;;10.03;8.50;;;8.90;99.90;;;;;;5043504;28;20211;-73
2022/04/04 08:30:29;;;;;;;13.87;8.67;;;9.00;99.90;;;;;;5042671;28;20172;-74
2022/04/04 08:32:54;;;;;;;11.17;8.07;;;8.90;99.90;;;;;;5054333;22;20693;-78
2022/04/04 08:35:21;;;;;;;9.53;8.17;;;8.90;99.90;;;;;;5053289;28;20225;-79
2022/04/04 08:37:47;;;;;;;10.93;7.73;;;8.70;99.90;;;;;;5048311;28;20200;-77
2022/04/04 08:40:14;;;;;;;16.03;8.77;;;8.60;99.90;;;;;;5044555;28;20280;-77
2022/04/04 08:42:41;;;;;;;11.53;8.60;;;8.50;99.90;;;;;;5060205;28;20672;-77
2022/04/04 08:45:08;;;;;;;11.83;8.13;;;8.50;99.90;;;;;;5059883;28;20697;-78
2022/04/04 08:47:34;;;;;;;8.83;7.60;;;8.70;99.90;;;;;;5063539;28;20737;-77
2022/04/04 08:50:01;;;;;;;11.20;7.50;;;8.80;99.90;;;;;;5050561;28;20195;-78
2022/04/04 08:52:27;;;;;;;9.90;7.80;;;9.00;99.90;;;;;;5049313;28;20218;-77
2022/04/04 08:54:53;;;;;;;11.47;7.37;;;9.10;99.90;;;;;;5060246;28;20172;-78
2022/04/04 08:57:19;;;;;;;10.27;7.37;;;9.30;99.90;;;;;;5060472;28;20586;-77
2022/04/04 08:59:45;;;;;;;12.17;7.50;;;9.60;99.90;;;;;;5063012;28;20229;-78
2022/04/04 09:02:12;;;;;;;8.00;7.23;;;9.70;99.90;;;;;;5050616;28;20315;-77
2022/04/04 09:04:38;;;;;;;8.40;7.03;;;9.80;99.90;;;;;;5048879;28;20222;-77
2022/04/04 09:07:08;;;;;;;10.37;7.50;;;9.80;99.90;;;;;;5059684;28;20219;-77
2022/04/04 09:09:41;;;;;;;10.60;7.00;;;10.00;99.90;;;;;;5061219;28;20251;-78
2022/04/04 09:12:10;;;;;;;9.13;7.27;;;9.70;99.90;;;;;;5043499;28;20703;-77
2022/04/04 09:14:56;;;;;;;11.07;6.90;;;9.60;99.90;;;;;;5043411;28;20219;-78
2022/04/04 09:17:25;;;;;;;8.30;6.93;;;9.40;99.90;;;;;;5042338;28;20726;-77
2022/04/04 09:19:51;;;;;;;8.77;7.17;;;9.30;99.90;;;;;;5042590;28;20269;-78
2022/04/04 09:22:19;;;;;;;8.57;6.77;;;9.40;99.90;;;;;;5047121;28;20361;-78
2022/04/04 09:24:56;;;;;;;8.53;6.63;;;9.60;99.90;;;;;;5059513;28;20180;-78
2022/04/04 09:27:24;;;;;;;10.00;7.20;;;9.70;99.90;;;;;;5058584;28;20170;-77
2022/04/04 09:29:53;;;;;;;10.17;7.23;;;9.50;99.90;;;;;;5057335;28;20219;-78
2022/04/04 09:32:20;;;;;;;10.97;7.37;;;9.60;99.90;;;;;;5057988;28;20215;-78
2022/04/04 09:34:48;;;;;;;10.90;7.20;;;9.60;99.90;;;;;;5059275;28;20702;-78
2022/04/04 09:37:19;;;;;;;8.37;7.03;;;9.60;99.90;;;;;;5054676;28;20216;-78
2022/04/04 09:39:45;;;;;;;11.40;7.33;;;9.70;99.90;;;;;;5041897;28;20234;-78
2022/04/04 09:42:15;;;;;;;9.43;7.37;;;10.30;99.90;;;;;;5044324;28;20681;-78
2022/04/04 09:44:41;;;;;;;9.03;6.90;;;10.60;99.90;;;;;;5058865;28;20210;-77
2022/04/04 09:47:06;;;;;;;10.83;7.47;;;10.40;99.90;;;;;;5062876;28;20198;-78
2022/04/04 09:49:38;;;;;;;10.33;7.67;;;10.30;99.90;;;;;;5061314;28;20695;-78
2022/04/04 09:52:04;;;;;;;15.70;8.10;;;10.10;99.90;;;;;;5062564;28;20215;-78
2022/04/04 09:54:29;;;;;;;10.70;8.20;;;10.40;99.90;;;;;;5061779;28;20206;-78
2022/04/04 09:57:08;;;;;;;13.17;8.97;;;10.50;99.90;;;;;;5050899;28;20202;-78
2022/04/04 09:59:36;;;;;;;12.37;9.83;;;10.70;99.90;;;;;;5065737;28;20313;-78
2022/04/04 10:02:03;;;;;;;9.97;7.53;;;10.90;99.90;;;;;;5065012;28;20238;-78
2022/04/04 10:04:31;;;;;;;13.53;7.93;;;10.80;99.90;;;;;;5065965;28;20226;-78
2022/04/04 10:06:58;;;;;;;10.00;7.60;;;10.90;99.90;;;;;;5056646;28;20317;-78
2022/04/04 10:09:25;;;;;;;11.70;8.80;;;10.70;99.90;;;;;;5039017;28;20172;-77
2022/04/04 10:11:52;;;;;;;10.57;8.30;;;10.90;99.90;;;;;;5060452;28;20210;-78
2022/04/04 10:14:18;;;;;;;9.30;7.60;;;10.80;99.90;;;;;;5061276;28;20633;-78
2022/04/04 10:16:44;;;;;;;8.87;7.17;;;11.10;99.90;;;;;;5057656;28;20211;-78
2022/04/04 10:19:11;;;;;;;12.83;7.80;;;10.80;99.90;;;;;;5055676;28;20739;-78
2022/04/04 10:21:37;;;;;;;11.73;8.20;;;10.60;99.90;;;;;;5041435;28;20184;-77
2022/04/04 10:24:07;;;;;;;9.30;7.57;;;10.50;99.90;;;;;;5060812;28;20294;-79
2022/04/04 10:26:34;;;;;;;12.00;7.90;;;10.40;99.90;;;;;;5060451;28;20218;-78
2022/04/04 10:29:09;;;;;;;9.63;7.60;;;10.20;99.90;;;;;;5057920;28;20218;-78
2022/04/04 10:31:53;;;;;;;10.50;8.50;;;10.00;99.90;;;;;;5052520;28;20774;-76
2022/04/04 10:34:23;;;;;;;11.47;7.50;;;9.90;99.90;;;;;;5047819;28;20225;-78
2022/04/04 10:36:59;;;;;;;9.33;7.97;;;9.70;99.90;;;;;;5057629;28;20579;-78
2022/04/04 10:39:45;;;;;;;11.73;8.03;;;9.60;99.90;;;;;;5058762;28;20209;-78
2022/04/04 10:42:28;;;;;;;10.97;7.53;;;9.60;99.90;;;;;;5041386;28;20242;-79
2022/04/04 10:45:19;;;;;;;14.23;7.83;;;9.80;99.90;;;;;;5060866;28;20687;-78
2022/04/04 10:47:45;;;;;;;11.23;7.73;;;9.90;99.90;;;;;;5041796;28;20203;-77
2022/04/04 10:50:22;;;;;;;10.87;7.47;;;9.70;99.90;;;;;;5041730;28;20562;-77
2022/04/04 10:52:48;;;;;;;10.03;7.57;;;9.40;99.90;;;;;;5054712;28;20239;-78
2022/04/04 10:55:38;;;;;;;13.10;7.57;;;9.40;99.90;;;;;;5058603;28;20672;-77
2022/04/04 10:58:12;;;;;;;13.03;7.50;;;9.60;99.90;;;;;;5057598;28;20227;-77
2022/04/04 11:00:58;;;;;;;14.67;7.03;;;9.60;99.90;;;;;;5060060;28;20192;-78
2022/04/04 11:03:30;;;;;;;10.07;6.33;;;9.80;99.90;;;;;;5040286;28;20220;-79
2022/04/04 11:09:03;;;;;;;8.97;6.00;;;9.80;99.90;;;;;;5037720;28;20219;-79
2022/04/04 11:11:55;;;;;;;15.53;6.60;;;9.70;99.90;;;;;;5053252;28;20238;-78
2022/04/04 11:14:26;;;;;;;9.90;5.73;;;9.60;99.90;;;;;;5062003;28;20264;-77
2022/04/04 11:17:11;;;;;;;7.80;5.33;;;9.40;99.90;;;;;;5058434;28;20196;-78
2022/04/04 11:19:50;;;;;;;7.53;5.30;;;9.40;99.90;;;;;;5051824;28;20230;-78
2022/04/04 11:22:27;;;;;;;13.30;7.13;;;9.60;99.90;;;;;;5046989;28;20719;-78
2022/04/04 11:25:03;;;;;;;15.10;8.27;;;9.60;99.90;;;;;;5062046;28;20262;-78
2022/04/04 11:27:29;;;;;;;10.40;6.17;;;9.40;99.90;;;;;;5061930;28;20194;-78
2022/04/04 11:29:55;;;;;;;7.10;5.53;;;9.40;99.90;;;;;;5064457;28;20286;-78
2022/04/04 11:32:40;;;;;;;7.37;5.57;;;9.40;99.90;;;;;;5050850;28;20654;-78
2022/04/04 11:35:10;;;;;;;10.10;6.20;;;9.30;99.90;;;;;;5053860;28;20699;-78
2022/04/04 11:37:46;;;;;;;10.30;6.23;;;9.40;99.90;;;;;;5063517;28;20718;-79
2022/04/04 11:40:14;;;;;;;11.57;5.90;;;9.40;99.90;;;;;;5063358;28;20674;-78
2022/04/04 11:42:50;;;;;;;13.90;5.33;;;9.40;99.90;;;;;;5062010;28;20249;-78
2022/04/04 11:45:39;;;;;;;7.33;4.50;;;9.50;99.90;;;;;;5041974;28;20168;-78
2022/04/04 11:48:17;;;;;;;12.73;5.53;;;9.50;99.90;;;;;;5046359;28;20258;-77
2022/04/04 11:50:44;;;;;;;10.30;6.27;;;9.60;99.90;;;;;;5041709;28;20273;-78
2022/04/04 11:53:14;;;;;;;11.97;4.53;;;9.70;99.90;;;;;;5052362;28;20286;-77
2022/04/04 11:55:42;;;;;;;8.23;4.63;;;9.70;99.90;;;;;;5063764;28;20215;-78
2022/04/04 11:58:12;;;;;;;8.00;4.40;;;9.30;99.90;;;;;;5063902;28;20246;-78
2022/04/04 12:00:40;;;;;;;7.00;3.50;;;9.10;99.90;;;;;;5061388;28;20175;-79
2022/04/04 12:03:11;;;;;;;13.93;3.80;;;8.90;99.90;;;;;;5060406;28;20254;-78
2022/04/04 12:05:44;;;;;;;5.83;4.10;;;8.90;99.90;;;;;;5063448;28;20219;-78
2022/04/04 12:08:12;;;;;;;10.20;4.67;;;8.80;99.90;;;;;;5062688;28;20210;-79
2022/04/04 12:10:38;;;;;;;5.63;3.67;;;8.70;99.90;;;;;;5062054;28;20229;-78
2022/04/04 12:13:08;;;;;;;6.03;3.87;;;8.60;99.90;;;;;;5060886;28;20208;-77
2022/04/04 12:15:37;;;;;;;9.50;4.03;;;8.70;99.90;;;;;;5063313;28;20512;-76
2022/04/04 12:18:04;;;;;;;7.17;4.13;;;8.70;99.90;;;;;;5065042;28;20219;-78
2022/04/04 12:20:44;;;;;;;8.60;3.90;;;8.50;99.90;;;;;;5062830;28;20722;-77
2022/04/04 12:26:04;;;;;;;11.20;4.23;;;7.90;99.90;;;;;;5060969;28;20211;-76
2022/04/04 12:28:38;;;;;;;10.73;4.03;;;7.80;99.90;;;;;;5060974;28;20214;-77
2022/04/04 12:31:21;;;;;;;11.23;4.10;;;7.70;99.90;;;;;;5064594;28;20609;-77
2022/04/04 12:34:06;;;;;;;9.30;4.33;;;7.50;99.90;;;;;;5062368;28;20193;-78
2022/04/04 12:36:40;;;;;;;8.47;4.50;;;7.40;99.90;;;;;;5062820;28;20171;-77
2022/04/04 12:39:14;;;;;;;7.43;4.53;;;7.20;99.90;;;;;;5058644;28;20361;-77
2022/04/04 12:41:44;;;;;;;8.10;4.83;;;7.20;99.90;;;;;;5069832;28;20241;-76
2022/04/04 12:44:10;;;;;;;9.03;5.90;;;7.00;99.90;;;;;;5060367;28;20238;-77
2022/04/04 12:46:36;;;;;;;9.83;5.80;;;6.80;99.90;;;;;;5061166;28;20257;-77
2022/04/04 12:49:29;;;;;;;10.67;5.53;;;6.70;99.90;;;;;;5065277;28;20235;-77
2022/04/04 12:52:05;;;;;;;10.50;6.27;;;6.60;99.90;;;;;;5060206;28;20691;-77
2022/04/04 12:54:36;;;;;;;11.23;5.90;;;6.50;99.90;;;;;;5062549;28;20315;-76
2022/04/04 12:57:04;;;;;;;8.97;6.33;;;6.60;99.90;;;;;;5063593;28;20216;-76
2022/04/04 12:59:45;;;;;;;9.00;5.97;;;6.60;99.90;;;;;;5059732;28;20754;-76
2022/04/04 13:02:11;;;;;;;7.50;6.07;;;6.60;99.90;;;;;;5058521;28;20240;-77
2022/04/04 13:04:38;;;;;;;11.43;6.43;;;6.20;99.90;;;;;;5062177;28;20701;-77